Time;durP1;ratioP1;P1;durP2;ratioP2;P2;SDS_P1;SDS_P2;PMS_P1;PMS_P2;Temp;Humidity;BMP_temperature;BMP_pressure;BME280_temperature;BME280_humidity;BME280_pressure;Samples;Min_cycle;Max_cycle;Signal;HPM_P1;HPM_P2
2022/04/06 00:00:00;;;;;;;8.03;3.60;;;;;;;7.95;75.53;94074.78;5073697;28;20213;-59
2022/04/06 00:02:25;;;;;;;6.77;4.37;;;;;;;8.08;75.75;94085.47;5073823;28;20185;-62
2022/04/06 00:04:51;;;;;;;4.13;3.67;;;;;;;8.09;75.67;94092.13;5074918;28;20184;-62
2022/04/06 00:07:17;;;;;;;6.97;3.83;;;;;;;7.99;76.35;94081.19;5073638;28;20203;-62
2022/04/06 00:09:42;;;;;;;6.80;4.37;;;;;;;8.04;76.06;94089.19;5074134;28;20181;-63
2022/04/06 00:12:08;;;;;;;7.07;3.93;;;;;;;8.29;75.57;94098.88;5073537;28;20207;-62
2022/04/06 00:14:35;;;;;;;6.00;3.53;;;;;;;8.25;74.77;94107.66;5073353;28;20211;-59
2022/04/06 00:17:04;;;;;;;5.50;3.70;;;;;;;8.27;74.92;94107.53;5072415;28;20278;-60
2022/04/06 00:19:30;;;;;;;8.43;3.67;;;;;;;8.37;73.82;94109.16;5073752;28;20223;-61
2022/04/06 00:21:56;;;;;;;5.80;4.00;;;;;;;8.38;73.34;94112.50;5073072;28;20204;-62
2022/04/06 00:24:21;;;;;;;6.67;3.77;;;;;;;8.36;73.75;94115.16;5073470;28;20193;-60
2022/04/06 00:26:47;;;;;;;5.17;3.63;;;;;;;8.44;73.23;94120.38;5054876;28;20682;-61
2022/04/06 00:29:12;;;;;;;6.13;3.40;;;;;;;8.37;72.55;94116.75;5073486;28;20193;-62
2022/04/06 00:31:38;;;;;;;6.43;3.47;;;;;;;8.38;73.30;94117.56;5073134;28;20197;-62
2022/04/06 00:34:03;;;;;;;9.50;3.60;;;;;;;8.28;73.25;94114.22;5073542;28;20185;-62
2022/04/06 00:36:29;;;;;;;7.47;3.03;;;;;;;8.18;73.14;94110.81;5073109;28;20220;-61
2022/04/06 00:38:55;;;;;;;6.13;3.70;;;;;;;8.14;73.25;94104.41;5072701;28;20216;-62
2022/04/06 00:41:21;;;;;;;5.87;3.70;;;;;;;8.17;73.04;94112.56;5072059;28;20197;-63
2022/04/06 00:44:13;;;;;;;5.63;3.37;;;;;;;7.92;74.54;94107.91;5073217;28;20181;-60
2022/04/06 00:46:40;;;;;;;8.60;3.40;;;;;;;7.70;75.71;94097.16;5072910;28;20283;-58
2022/04/06 00:49:14;;;;;;;4.93;3.30;;;;;;;7.62;75.64;94101.16;5071785;28;20193;-60
2022/04/06 00:51:44;;;;;;;7.50;3.17;;;;;;;7.70;75.42;94113.16;5072664;28;20199;-61
2022/04/06 00:54:13;;;;;;;5.57;3.97;;;;;;;7.64;75.57;94103.53;5073089;28;20263;-63
2022/04/06 00:56:40;;;;;;;5.03;3.07;;;;;;;7.67;76.14;94105.03;5072453;28;20216;-62
2022/04/06 00:59:05;;;;;;;5.83;3.50;;;;;;;7.58;75.73;94098.97;5071394;28;20275;-61
2022/04/06 01:01:31;;;;;;;8.67;3.20;;;;;;;7.68;75.40;94102.34;5072561;28;20205;-63
2022/04/06 01:03:56;;;;;;;5.40;3.17;;;;;;;7.81;75.03;94108.03;5072838;28;20187;-60
2022/04/06 01:06:23;;;;;;;6.30;3.40;;;;;;;7.88;74.54;94126.03;5072686;28;20579;-62
2022/04/06 01:08:51;;;;;;;4.43;3.07;;;;;;;7.86;74.57;94123.59;5072733;28;20198;-61
2022/04/06 01:11:17;;;;;;;6.70;3.77;;;;;;;7.90;74.30;94126.72;5071054;28;20216;-63
2022/04/06 01:13:45;;;;;;;5.53;3.37;;;;;;;8.13;73.61;94141.59;5072471;28;20252;-64
2022/04/06 01:16:10;;;;;;;8.73;3.77;;;;;;;8.20;73.38;94131.75;5072125;28;20557;-58
2022/04/06 01:18:36;;;;;;;4.93;3.63;;;;;;;8.26;73.11;94144.72;5072390;28;20200;-59
2022/04/06 01:21:03;;;;;;;6.33;3.23;;;;;;;8.29;72.96;94143.66;5072164;28;20205;-60
2022/04/06 01:23:28;;;;;;;8.73;3.90;;;;;;;8.26;73.19;94137.13;5072168;28;20645;-62
2022/04/06 01:25:54;;;;;;;11.17;4.10;;;;;;;8.53;71.64;94155.97;5072219;28;20205;-62
2022/04/06 01:28:19;;;;;;;5.27;4.00;;;;;;;8.52;70.70;94144.25;5071903;28;20295;-62
2022/04/06 01:30:45;;;;;;;5.33;3.87;;;;;;;8.44;72.24;94142.38;5070515;28;20212;-61
2022/04/06 01:33:11;;;;;;;5.30;4.10;;;;;;;8.60;72.13;94146.94;5072227;28;20631;-62
2022/04/06 01:35:38;;;;;;;7.90;4.27;;;;;;;8.70;71.58;94157.88;5071864;28;20196;-62
2022/04/06 01:38:05;;;;;;;6.70;3.43;;;;;;;8.50;70.84;94152.00;5071909;28;20181;-62
2022/04/06 01:40:30;;;;;;;6.03;3.57;;;;;;;8.45;71.08;94144.78;5071815;28;20721;-63
2022/04/06 01:42:56;;;;;;;8.20;3.47;;;;;;;8.46;71.25;94137.97;5072118;28;20322;-61
2022/04/06 01:45:22;;;;;;;11.13;4.23;;;;;;;8.48;71.60;94143.72;5071869;28;20795;-62
2022/04/06 01:47:48;;;;;;;7.33;3.37;;;;;;;8.48;70.97;94144.50;5070717;28;20184;-61
2022/04/06 01:52:57;;;;;;;13.60;3.43;;;;;;;8.61;71.80;94140.94;5072051;28;20724;-62
2022/04/06 01:55:22;;;;;;;13.17;4.50;;;;;;;8.51;72.23;94128.25;5071980;28;20197;-59
2022/04/06 01:57:48;;;;;;;10.83;4.20;;;;;;;8.48;71.67;94140.38;5071938;28;20177;-60
2022/04/06 02:00:15;;;;;;;7.60;3.73;;;;;;;8.26;71.87;94159.91;5071799;28;20205;-61
2022/04/06 02:02:44;;;;;;;6.83;3.53;;;;;;;8.10;71.72;94153.69;5071603;28;20215;-60
2022/04/06 02:05:12;;;;;;;6.80;3.50;;;;;;;8.07;71.19;94157.28;5071583;28;20176;-60
2022/04/06 02:07:38;;;;;;;5.80;3.37;;;;;;;7.76;71.84;94144.75;5071127;28;20180;-62
2022/04/06 02:10:04;;;;;;;7.67;3.83;;;;;;;7.72;72.69;94139.13;5071523;28;20205;-61
2022/04/06 02:12:29;;;;;;;9.07;4.27;;;;;;;7.72;72.93;94136.59;5071476;28;20176;-60
2022/04/06 02:14:55;;;;;;;7.93;3.53;;;;;;;7.69;73.48;94131.00;5071757;28;20195;-60
2022/04/06 02:17:21;;;;;;;4.47;3.40;;;;;;;7.70;72.91;94140.16;5070047;28;20266;-62
2022/04/06 02:19:47;;;;;;;6.27;3.20;;;;;;;7.60;73.91;94124.94;5070290;28;20244;-63
2022/04/06 02:22:12;;;;;;;5.63;3.83;;;;;;;7.56;73.83;94121.06;5071580;28;20193;-62
2022/04/06 02:24:38;;;;;;;5.47;3.60;;;;;;;7.53;74.17;94121.34;5072034;28;20519;-61
2022/04/06 02:27:07;;;;;;;4.93;3.40;;;;;;;7.59;74.49;94115.78;5071514;28;20223;-66
2022/04/06 02:29:34;;;;;;;7.13;3.27;;;;;;;7.63;74.26;94119.66;5071893;28;20211;-62
2022/04/06 02:31:59;;;;;;;9.67;3.87;;;;;;;7.65;74.74;94130.44;5069890;28;20200;-61
2022/04/06 02:34:25;;;;;;;7.30;3.63;;;;;;;7.38;74.49;94128.44;5070004;28;20628;-62
2022/04/06 02:36:50;;;;;;;6.20;3.57;;;;;;;7.37;74.91;94118.44;5071120;28;20197;-59
2022/04/06 02:39:16;;;;;;;8.37;3.60;;;;;;;7.20;75.01;94122.31;5069995;28;20208;-61
2022/04/06 02:41:41;;;;;;;6.33;3.13;;;;;;;7.06;75.73;94114.22;5071082;28;20189;-59
2022/04/06 02:44:07;;;;;;;4.77;3.20;;;;;;;7.10;75.80;94118.13;5071147;28;20188;-62
2022/04/06 02:46:33;;;;;;;5.37;3.63;;;;;;;7.19;76.15;94117.41;5071330;28;20694;-59
2022/04/06 02:48:58;;;;;;;6.00;3.33;;;;;;;7.15;77.00;94113.50;5071246;28;20189;-59
2022/04/06 02:51:24;;;;;;;8.27;3.50;;;;;;;7.27;76.70;94112.53;5071056;28;20708;-62
2022/04/06 02:53:50;;;;;;;6.23;2.97;;;;;;;7.31;75.64;94127.31;5071292;28;20272;-62
2022/04/06 02:56:15;;;;;;;7.90;3.33;;;;;;;7.40;75.38;94138.41;5069735;28;20204;-63
2022/04/06 02:58:41;;;;;;;5.70;3.53;;;;;;;7.36;75.58;94139.56;5070984;28;20240;-63
2022/04/06 03:01:06;;;;;;;5.43;3.63;;;;;;;7.33;75.94;94142.38;5070796;28;20271;-63
2022/04/06 03:03:32;;;;;;;5.10;3.57;;;;;;;7.46;74.98;94151.38;5069531;28;20606;-63
2022/04/06 03:05:57;;;;;;;5.10;3.30;;;;;;;7.45;74.57;94154.03;5064115;23;20225;-63
2022/04/06 03:08:23;;;;;;;4.97;3.10;;;;;;;7.61;74.19;94167.81;5050847;28;20651;-62
2022/04/06 03:10:48;;;;;;;12.03;3.90;;;;;;;7.59;74.31;94168.88;5050979;28;20209;-61
2022/04/06 03:13:14;;;;;;;6.20;3.50;;;;;;;7.52;73.99;94157.66;5050818;28;20224;-62
2022/04/06 03:15:40;;;;;;;6.20;3.30;;;;;;;7.64;73.61;94165.06;5056324;23;20784;-61
2022/04/06 03:18:05;;;;;;;6.80;3.70;;;;;;;7.64;73.98;94157.47;5071851;23;20227;-62
2022/04/06 03:20:31;;;;;;;6.17;3.40;;;;;;;7.81;73.18;94188.19;5073535;28;20289;-62
2022/04/06 03:22:57;;;;;;;7.03;3.90;;;;;;;7.94;71.64;94196.38;5074359;28;20560;-63
2022/04/06 03:25:23;;;;;;;11.10;4.23;;;;;;;7.76;72.76;94192.81;5074437;28;20197;-61
2022/04/06 03:27:49;;;;;;;10.53;4.23;;;;;;;7.63;73.26;94170.25;5074962;28;20268;-59
2022/04/06 03:30:14;;;;;;;11.73;4.13;;;;;;;7.70;73.37;94176.38;5074226;28;20658;-63
2022/04/06 03:32:41;;;;;;;8.70;4.27;;;;;;;7.49;73.50;94183.97;5074735;28;20234;-60
2022/04/06 03:35:07;;;;;;;8.93;3.37;;;;;;;7.47;73.36;94180.00;5074110;28;20181;-60
2022/04/06 03:37:34;;;;;;;4.67;3.40;;;;;;;7.42;72.93;94182.06;5074674;28;20661;-62
2022/04/06 03:39:59;;;;;;;14.23;4.60;;;;;;;7.28;74.19;94159.63;5072538;28;20209;-59
2022/04/06 03:42:25;;;;;;;6.70;3.40;;;;;;;7.09;74.95;94149.38;5074536;28;20184;-61
2022/04/06 03:44:50;;;;;;;6.87;3.83;;;;;;;7.16;75.42;94153.00;5074252;28;20349;-63
2022/04/06 03:47:16;;;;;;;5.67;3.80;;;;;;;7.21;75.49;94153.47;5072984;28;20239;-62
2022/04/06 03:49:42;;;;;;;8.60;4.57;;;;;;;7.01;76.52;94134.81;5074265;28;20184;-60
2022/04/06 03:52:08;;;;;;;6.50;3.97;;;;;;;6.98;76.44;94142.66;5072638;28;20212;-62
2022/04/06 03:54:34;;;;;;;5.40;3.73;;;;;;;6.88;76.84;94146.00;5073844;28;20184;-63
2022/04/06 03:57:00;;;;;;;6.00;3.43;;;;;;;6.83;77.28;94135.47;5072878;28;20214;-62
2022/04/06 03:59:25;;;;;;;8.37;3.87;;;;;;;6.93;77.59;94149.00;5073812;28;20200;-64
2022/04/06 04:01:51;;;;;;;7.90;3.80;;;;;;;7.14;76.91;94172.56;5072795;28;20205;-62
2022/04/06 04:04:16;;;;;;;11.83;4.03;;;;;;;7.08;76.25;94168.78;5073832;28;20258;-62
2022/04/06 04:06:42;;;;;;;7.83;3.60;;;;;;;7.06;75.96;94169.81;5066160;23;20240;-63
2022/04/06 04:09:07;;;;;;;8.77;4.17;;;;;;;6.98;76.60;94172.97;5053705;28;20192;-62
2022/04/06 04:11:33;;;;;;;3.97;3.53;;;;;;;6.90;77.35;94169.44;5054088;28;20549;-63
2022/04/06 04:13:59;;;;;;;6.77;4.17;;;;;;;6.86;77.97;94160.47;5053489;28;20186;-62
2022/04/06 04:16:25;;;;;;;7.50;3.53;;;;;;;6.71;78.00;94158.22;5053859;28;20585;-62
2022/04/06 04:18:51;;;;;;;7.20;4.10;;;;;;;6.80;79.11;94159.25;5053497;28;20211;-62
2022/04/06 04:21:32;;;;;;;12.67;3.90;;;;;;;6.64;79.09;94156.31;5053963;28;20258;-62
2022/04/06 04:23:58;;;;;;;9.90;4.60;;;;;;;6.48;80.70;94154.16;5053334;28;20169;-62
2022/04/06 04:26:24;;;;;;;11.47;3.90;;;;;;;6.54;79.58;94173.91;5053523;28;20211;-62
2022/04/06 04:28:49;;;;;;;7.27;3.73;;;;;;;6.41;80.46;94170.69;5052036;28;20191;-61
2022/04/06 04:31:15;;;;;;;8.37;3.90;;;;;;;6.45;80.13;94178.81;5052441;28;20209;-62
2022/04/06 04:33:41;;;;;;;9.43;4.43;;;;;;;6.54;79.09;94191.56;5053000;28;20188;-64
2022/04/06 04:36:06;;;;;;;7.07;3.80;;;;;;;6.58;79.36;94192.13;5053566;28;20256;-61
2022/04/06 04:38:32;;;;;;;9.77;4.13;;;;;;;6.63;79.06;94198.41;5051760;28;20369;-60
2022/04/06 04:40:57;;;;;;;8.47;4.20;;;;;;;6.63;79.09;94198.41;5051628;28;20231;-63
2022/04/06 04:43:23;;;;;;;10.03;4.00;;;;;;;6.56;80.18;94186.41;5053025;28;20180;-62
2022/04/06 04:45:48;;;;;;;6.27;3.87;;;;;;;7.34;100.00;94227.38;5053336;28;20332;-60
2022/04/06 04:48:14;;;;;;;8.73;4.10;;;;;;;8.10;100.00;94222.03;5052926;28;20181;-63
2022/04/06 04:50:40;;;;;;;6.77;4.80;;;;;;;9.05;100.00;94219.81;5053099;28;20635;-64
2022/04/06 04:53:05;;;;;;;9.00;3.47;;;;;;;10.18;100.00;94259.75;5052791;28;20174;-63
2022/04/06 04:55:32;;;;;;;10.13;4.03;;;;;;;10.16;91.47;94436.88;5053090;28;20208;-62
2022/04/06 04:57:58;;;;;;;9.77;4.07;;;;;;;9.74;89.02;94405.78;5052855;28;20658;-61
2022/04/06 05:00:23;;;;;;;14.40;4.30;;;;;;;9.29;89.52;94380.03;5052603;28;20263;-60
2022/04/06 05:02:49;;;;;;;10.83;4.13;;;;;;;9.06;89.71;94377.81;5052617;28;20181;-64
2022/04/06 05:05:14;;;;;;;5.97;3.67;;;;;;;8.61;89.40;94361.31;5051329;28;20178;-60
2022/04/06 05:07:40;;;;;;;6.50;3.93;;;;;;;8.22;92.43;94320.56;5051609;28;20187;-60
2022/04/06 05:10:08;;;;;;;8.20;4.00;;;;;;;7.99;93.92;94314.03;5052543;28;20657;-61
2022/04/06 05:12:34;;;;;;;14.13;4.27;;;;;;;7.97;96.28;94284.69;5052627;28;20181;-61
2022/04/06 05:14:59;;;;;;;9.63;3.80;;;;;;;7.77;93.52;94328.50;5052479;28;20177;-60
2022/04/06 05:17:26;;;;;;;5.53;4.00;;;;;;;7.57;94.12;94319.97;5052533;28;20192;-61
2022/04/06 05:19:52;;;;;;;11.83;3.73;;;;;;;7.44;96.09;94304.13;5052308;28;20210;-67
2022/04/06 05:22:17;;;;;;;5.57;3.77;;;;;;;7.33;96.95;94297.38;5052190;28;20202;-63
2022/04/06 05:24:43;;;;;;;4.90;3.43;;;;;;;7.22;96.33;94297.41;5052358;28;20604;-63
2022/04/06 05:27:08;;;;;;;7.80;4.17;;;;;;;7.27;97.11;94294.53;5050975;28;20197;-67
2022/04/06 05:29:34;;;;;;;5.83;3.23;;;;;;;7.02;98.63;94277.13;5050890;28;20651;-61
2022/04/06 05:32:00;;;;;;;5.77;3.50;;;;;;;7.23;97.75;94299.00;5052417;28;20320;-60
2022/04/06 05:34:26;;;;;;;6.97;3.50;;;;;;;7.45;98.06;94298.16;5050844;28;20663;-61
2022/04/06 05:36:51;;;;;;;7.57;3.67;;;;;;;7.59;96.15;94335.81;5052642;28;20193;-61
2022/04/06 05:39:17;;;;;;;12.07;4.07;;;;;;;7.58;96.98;94316.47;5052046;28;20212;-64
2022/04/06 05:41:42;;;;;;;8.87;4.30;;;;;;;7.57;97.62;94309.84;5042332;23;20233;-61
2022/04/06 05:44:08;;;;;;;8.17;5.10;;;;;;;7.70;96.82;94317.25;5031493;28;20185;-61
2022/04/06 05:46:33;;;;;;;10.97;3.93;;;;;;;7.87;96.41;94342.03;5032676;28;20206;-61
2022/04/06 05:48:59;;;;;;;10.43;4.40;;;;;;;7.74;96.25;94339.66;5037774;23;20317;-63
2022/04/06 05:51:25;;;;;;;10.13;5.13;;;;;;;7.56;95.56;94339.38;5030708;28;20702;-65
2022/04/06 05:53:50;;;;;;;12.83;5.43;;;;;;;7.69;97.26;94321.53;5032715;28;20185;-63
2022/04/06 05:56:15;;;;;;;10.47;7.17;;;;;;;7.87;98.60;94301.53;5030572;28;20205;-62
2022/04/06 05:58:42;;;;;;;23.37;7.87;;;;;;;7.95;98.69;94316.91;5032642;28;20547;-68
2022/04/06 06:01:08;;;;;;;18.07;10.40;;;;;;;8.14;97.19;94332.25;5031896;28;20287;-61
2022/04/06 06:03:35;;;;;;;24.33;10.20;;;;;;;8.37;97.48;94334.56;5032546;28;20194;-63
2022/04/06 06:06:01;;;;;;;19.70;9.77;;;;;;;8.39;97.29;94354.69;5032106;28;20281;-62
2022/04/06 06:08:26;;;;;;;16.43;9.30;;;;;;;8.37;96.92;94349.75;5032269;28;20648;-62
2022/04/06 06:10:52;;;;;;;14.00;8.37;;;;;;;8.54;94.58;94372.91;5030470;28;20210;-65
2022/04/06 06:13:17;;;;;;;18.20;8.50;;;;;;;8.53;97.23;94336.63;5032531;28;20248;-62
2022/04/06 06:15:43;;;;;;;14.00;8.00;;;;;;;8.59;96.55;94358.94;5031893;28;20544;-63
2022/04/06 06:18:08;;;;;;;16.27;7.60;;;;;;;8.76;93.01;94398.09;5032144;28;20190;-62
2022/04/06 06:20:34;;;;;;;9.30;5.17;;;;;;;8.82;91.26;94433.06;5030302;28;20218;-61
2022/04/06 06:23:00;;;;;;;8.43;4.57;;;;;;;8.69;93.21;94389.38;5032034;28;20230;-61
2022/04/06 06:25:26;;;;;;;10.30;5.10;;;;;;;8.74;94.18;94355.16;5031943;28;20240;-62
2022/04/06 06:27:52;;;;;;;9.47;4.57;;;;;;;8.69;90.24;94419.78;5032069;28;20229;-62
2022/04/06 06:30:18;;;;;;;7.17;4.63;;;;;;;8.69;90.05;94414.72;5030250;28;20229;-61
2022/04/06 06:32:44;;;;;;;14.73;5.80;;;;;;;8.79;90.67;94402.91;5032126;28;20185;-66
2022/04/06 06:35:09;;;;;;;13.27;5.50;;;;;;;8.87;90.12;94416.56;5031527;28;20179;-61
2022/04/06 06:37:36;;;;;;;13.00;5.57;;;;;;;8.82;89.52;94425.47;5032188;28;20190;-61
2022/04/06 06:40:03;;;;;;;7.57;5.03;;;;;;;9.08;91.84;94376.78;5031779;28;20693;-63
2022/04/06 06:42:28;;;;;;;7.70;5.03;;;;;;;9.26;88.40;94431.03;5031879;28;20197;-63
2022/04/06 06:44:54;;;;;;;8.90;4.47;;;;;;;9.29;87.86;94440.13;5031815;28;20186;-68
2022/04/06 06:47:19;;;;;;;14.17;5.23;;;;;;;9.31;86.97;94446.66;5031672;28;20214;-64
2022/04/06 06:49:48;;;;;;;13.10;4.83;;;;;;;9.21;87.38;94439.97;5031884;28;20232;-63
2022/04/06 06:52:14;;;;;;;8.77;5.07;;;;;;;9.33;87.64;94427.03;5031867;28;20678;-62
2022/04/06 06:54:40;;;;;;;19.77;5.50;;;;;;;9.41;88.65;94407.84;5040822;23;20171;-63
2022/04/06 06:57:05;;;;;;;11.63;5.53;;;;;;;9.70;86.04;94439.97;5035669;28;20552;-68
2022/04/06 06:59:31;;;;;;;7.90;5.17;;;;;;;9.71;86.69;94428.91;5052172;22;20237;-63
2022/04/06 07:01:56;;;;;;;10.37;5.60;;;;;;;9.43;87.88;94403.47;5035398;28;20206;-68
2022/04/06 07:04:22;;;;;;;11.53;4.90;;;;;;;9.78;86.00;94442.66;5035594;28;20171;-63
2022/04/06 07:06:50;;;;;;;10.03;5.03;;;;;;;10.07;85.32;94443.53;5035510;28;20202;-66
2022/04/06 07:09:17;;;;;;;8.23;5.07;;;;;;;10.14;84.55;94454.78;5034927;28;20592;-64
2022/04/06 07:11:42;;;;;;;9.87;5.13;;;;;;;10.27;84.37;94446.91;5033685;28;20218;-64
2022/04/06 07:14:08;;;;;;;8.87;4.87;;;;;;;10.41;83.80;94466.84;5033793;28;20325;-65
2022/04/06 07:16:33;;;;;;;7.57;4.83;;;;;;;10.40;82.56;94482.22;5035199;28;20202;-63
2022/04/06 07:18:59;;;;;;;8.60;5.50;;;;;;;10.40;81.23;94500.03;5034929;28;20174;-62
2022/04/06 07:21:24;;;;;;;15.43;5.77;;;;;;;10.45;81.97;94472.47;5035049;28;20703;-64
2022/04/06 07:23:50;;;;;;;11.13;5.27;;;;;;;10.54;79.63;94523.31;5035260;28;20186;-66
2022/04/06 07:26:17;;;;;;;12.47;5.73;;;;;;;10.65;80.90;94485.03;5034831;28;20202;-64
2022/04/06 07:28:45;;;;;;;12.43;6.37;;;;;;;10.62;79.39;94505.66;5035252;28;20274;-62
2022/04/06 07:31:11;;;;;;;12.30;6.23;;;;;;;10.70;79.72;94504.97;5034897;28;20703;-63
2022/04/06 07:33:37;;;;;;;9.67;5.67;;;;;;;10.72;81.06;94472.59;5033860;28;20186;-65
2022/04/06 07:36:07;;;;;;;9.00;5.33;;;;;;;10.99;76.34;94533.72;5034688;28;20198;-62
2022/04/06 07:38:33;;;;;;;14.00;5.27;;;;;;;10.93;73.90;94541.88;5035035;28;20185;-64
2022/04/06 07:40:58;;;;;;;9.83;5.00;;;;;;;10.88;75.12;94503.38;5034582;28;20214;-65
2022/04/06 07:43:24;;;;;;;15.47;5.53;;;;;;;11.15;72.71;94540.81;5034949;28;20273;-64
2022/04/06 07:45:50;;;;;;;10.33;5.63;;;;;;;11.30;72.02;94535.16;5034699;28;20209;-65
2022/04/06 07:48:16;;;;;;;10.23;5.77;;;;;;;11.18;70.70;94527.81;5090183;22;20226;-64
2022/04/06 07:50:42;;;;;;;13.37;5.40;;;;;;;11.28;71.14;94531.94;5033444;28;20230;-70
2022/04/06 07:53:07;;;;;;;10.50;6.43;;;;;;;11.30;72.15;94509.72;5034309;28;20182;-63
2022/04/06 07:55:33;;;;;;;13.37;5.83;;;;;;;11.25;73.00;94493.25;5034192;28;20675;-63
2022/04/06 07:57:58;;;;;;;12.63;5.73;;;;;;;11.02;73.04;94477.50;5034474;28;20190;-72
2022/04/06 08:00:24;;;;;;;12.33;5.73;;;;;;;11.09;71.50;94509.06;5034091;28;20214;-67
2022/04/06 08:02:51;;;;;;;12.57;6.20;;;;;;;11.34;72.22;94493.22;5034298;28;20232;-67
2022/04/06 08:05:17;;;;;;;11.77;5.10;;;;;;;11.67;70.11;94523.31;5033583;28;20189;-67
2022/04/06 08:07:44;;;;;;;10.90;5.60;;;;;;;11.93;70.54;94515.00;5033840;28;20662;-63
2022/04/06 08:10:12;;;;;;;17.17;6.57;;;;;;;12.00;70.12;94521.16;5032718;28;20190;-69
2022/04/06 08:12:38;;;;;;;13.83;6.30;;;;;;;12.11;68.73;94538.78;5034180;28;20611;-66
2022/04/06 08:15:05;;;;;;;18.53;7.57;;;;;;;12.16;69.27;94527.22;5034115;28;20566;-65
2022/04/06 08:17:45;;;;;;;12.70;7.37;;;;;;;12.28;69.50;94527.84;5032880;28;20189;-70
2022/04/06 08:20:12;;;;;;;15.13;7.63;;;;;;;12.31;67.71;94546.19;5033754;28;20210;-67
2022/04/06 08:22:39;;;;;;;13.80;6.47;;;;;;;12.50;69.43;94510.38;5049256;28;20215;-65
2022/04/06 08:25:13;;;;;;;14.93;7.17;;;;;;;12.42;68.90;94527.34;5032368;28;20286;-65
2022/04/06 08:27:41;;;;;;;16.43;7.57;;;;;;;12.32;68.05;94498.59;5049178;28;20595;-63
2022/04/06 08:30:09;;;;;;;9.23;6.07;;;;;;;12.29;67.35;94501.41;5032148;28;20182;-67
2022/04/06 08:32:34;;;;;;;18.57;6.47;;;;;;;12.57;66.97;94513.16;5033459;28;20178;-67
2022/04/06 08:35:01;;;;;;;15.37;6.57;;;;;;;12.67;64.68;94554.69;5032031;28;20739;-68
2022/04/06 08:37:38;;;;;;;16.40;6.83;;;;;;;12.82;63.92;94544.78;5033419;28;20189;-66
2022/04/06 08:40:07;;;;;;;9.87;5.90;;;;;;;13.02;61.89;94584.50;5033121;28;20240;-66
2022/04/06 08:42:39;;;;;;;19.77;7.03;;;;;;;12.96;59.35;94597.84;5033024;28;20189;-67
2022/04/06 08:45:06;;;;;;;10.33;6.13;;;;;;;12.89;57.12;94612.94;5031956;28;20190;-64
2022/04/06 08:47:33;;;;;;;9.63;5.23;;;;;;;13.04;58.46;94586.00;5033144;28;20170;-65
2022/04/06 08:49:59;;;;;;;12.03;5.97;;;;;;;13.21;57.04;94600.50;5033530;28;20210;-64
2022/04/06 08:52:24;;;;;;;11.97;5.60;;;;;;;13.39;55.71;94616.59;5031911;28;20230;-66
2022/04/06 08:54:50;;;;;;;9.93;5.57;;;;;;;13.65;56.65;94585.19;5032077;28;20851;-65
2022/04/06 08:57:18;;;;;;;13.60;5.63;;;;;;;13.63;53.83;94628.78;5048254;28;20644;-65
2022/04/06 08:59:45;;;;;;;12.37;5.13;;;;;;;13.77;54.82;94600.13;5033680;28;20214;-63
2022/04/06 09:02:17;;;;;;;14.47;5.80;;;;;;;13.98;52.88;94638.91;5033273;28;20202;-65
2022/04/06 09:04:42;;;;;;;9.02;4.57;;;;;;;14.40;53.26;94607.50;5033756;28;20186;-65
2022/04/06 09:07:09;;;;;;;14.57;6.07;;;;;;;14.80;51.69;94636.59;5031562;28;20203;-63
2022/04/06 09:09:36;;;;;;;16.83;6.27;;;;;;;15.05;54.45;94564.00;5033204;28;20186;-63
2022/04/06 09:12:08;;;;;;;9.88;5.38;;;;;;;15.34;53.05;94589.13;5040165;23;20228;-63
2022/04/06 09:14:35;;;;;;;13.32;5.15;;;;;;;15.76;53.10;94581.28;5041612;23;20202;-63
2022/04/06 09:17:05;;;;;;;14.88;8.00;;;;;;;16.21;50.11;94642.25;5050089;28;20232;-64
2022/04/06 09:19:31;;;;;;;9.60;4.85;;;;;;;16.52;49.53;94650.88;5052918;28;20205;-65
2022/04/06 09:21:56;;;;;;;9.38;4.82;;;;;;;16.78;47.51;94675.31;5041112;23;20222;-65
2022/04/06 09:24:24;;;;;;;8.77;4.47;;;;;;;16.56;46.16;94670.09;5032566;28;20648;-63
2022/04/06 09:27:00;;;;;;;9.23;5.22;;;;;;;16.35;45.12;94683.44;5019725;23;20235;-62
2022/04/06 09:29:25;;;;;;;5.78;3.70;;;;;;;16.50;42.01;94748.53;5055581;23;20221;-64
2022/04/06 09:31:52;;;;;;;7.55;3.58;;;;;;;16.59;41.23;94723.66;5052356;28;20239;-64
2022/04/06 09:34:21;;;;;;;7.30;3.80;;;;;;;16.58;38.22;94581.69;5052035;28;20173;-65
2022/04/06 09:36:47;;;;;;;5.15;2.70;;;;;;;16.82;38.15;94556.88;5052176;28;20197;-64
2022/04/06 09:39:13;;;;;;;8.73;3.90;;;;;;;17.21;39.09;94519.03;5051903;28;20687;-64
2022/04/06 09:42:00;;;;;;;7.75;4.07;;;;;;;17.71;40.24;94493.53;5051943;28;20300;-64
2022/04/06 09:50:08;;;;;;;4.15;3.05;;;;;;;18.51;38.67;94508.97;5039686;23;20228;-67
2022/04/06 09:52:36;;;;;;;5.68;3.00;;;;;;;18.66;36.18;94540.66;5032126;28;20197;-64
2022/04/06 09:55:08;;;;;;;2.20;1.85;;;;;;;18.85;33.81;94576.13;5032053;28;20587;-66
2022/04/06 09:57:44;;;;;;;5.70;1.90;;;;;;;18.81;34.60;94520.78;5032445;28;20198;-64
2022/04/06 10:00:12;;;;;;;7.97;3.08;;;;;;;18.76;34.69;94507.69;5032175;28;20646;-64
2022/04/06 10:02:41;;;;;;;5.65;2.75;;;;;;;18.25;35.22;94501.72;5031965;28;20178;-63
2022/04/06 10:05:11;;;;;;;7.30;3.35;;;;;;;18.90;35.55;94486.22;5031756;28;20244;-64
2022/04/06 10:07:38;;;;;;;9.23;3.45;;;;;;;18.59;36.50;94455.59;5031847;28;20593;-63
2022/04/06 10:10:06;;;;;;;8.25;4.05;;;;;;;18.79;37.17;94430.81;5029867;28;20218;-63
2022/04/06 10:12:31;;;;;;;4.82;3.20;;;;;;;19.27;35.02;94480.75;5031710;28;20621;-63
2022/04/06 10:15:00;;;;;;;5.95;3.50;;;;;;;18.90;34.26;94488.78;5039323;22;20716;-64
2022/04/06 10:17:28;;;;;;;5.30;2.88;;;;;;;19.31;35.80;94445.91;5011878;28;20179;-64
2022/04/06 10:20:02;;;;;;;5.78;3.17;;;;;;;18.60;33.88;94474.44;5012187;28;20609;-64
2022/04/06 10:22:39;;;;;;;4.78;2.85;;;;;;;19.12;33.93;94480.06;5011907;28;20679;-65
2022/04/06 10:25:16;;;;;;;3.55;3.00;;;;;;;19.52;32.90;94486.34;5026499;28;20194;-64
2022/04/06 10:27:55;;;;;;;5.30;2.88;;;;;;;19.95;34.56;94452.47;5027183;28;20202;-68
2022/04/06 10:30:26;;;;;;;4.25;2.75;;;;;;;20.43;35.45;94418.91;5013589;28;20212;-67
2022/04/06 10:32:53;;;;;;;6.55;2.22;;;;;;;20.82;34.47;94447.41;5016220;28;20210;-63
2022/04/06 10:35:25;;;;;;;4.57;2.90;;;;;;;21.19;33.91;94452.00;5014386;28;20225;-63
2022/04/06 10:38:14;;;;;;;3.85;2.13;;;;;;;21.37;31.59;94496.16;5015940;28;20189;-62
2022/04/06 10:40:42;;;;;;;4.68;2.50;;;;;;;21.40;30.57;94507.91;5015592;28;20719;-68
2022/04/06 10:43:43;;;;;;;4.53;2.35;;;;;;;21.22;30.68;94481.84;5016236;28;20194;-64
2022/04/06 10:46:14;;;;;;;3.08;2.17;;;;;;;21.44;30.84;94472.88;5016009;28;20591;-66
2022/04/06 10:49:15;;;;;;;2.88;2.42;;;;;;;21.45;32.16;94430.53;5030877;28;20187;-62
2022/04/06 10:51:43;;;;;;;2.85;1.83;;;;;;;21.88;30.46;94467.06;4994183;28;20200;-65
2022/04/06 10:54:11;;;;;;;4.20;2.00;;;;;;;22.29;31.20;94450.22;5011443;28;20199;-62
2022/04/06 10:56:59;;;;;;;2.50;2.15;;;;;;;22.47;29.75;94467.66;5015878;28;20738;-63
2022/04/06 10:59:29;;;;;;;4.63;2.30;;;;;;;22.35;28.81;94490.84;5016046;28;20249;-67
2022/04/06 11:02:16;;;;;;;4.60;2.70;;;;;;;22.44;30.58;94427.41;5015552;28;20199;-64
2022/04/06 11:04:42;;;;;;;3.55;2.50;;;;;;;22.63;30.07;94438.69;5016088;28;20195;-66
2022/04/06 11:07:08;;;;;;;3.28;1.98;;;;;;;22.67;29.25;94452.03;5014325;28;20261;-63
2022/04/06 11:12:25;;;;;;;5.10;1.95;;;;;;;22.82;29.39;94439.56;5015717;28;20660;-63
2022/04/06 11:15:00;;;;;;;2.97;2.00;;;;;;;22.91;29.22;94439.09;5030577;28;20680;-64
2022/04/06 11:17:34;;;;;;;3.45;2.10;;;;;;;22.91;29.28;94441.69;5014671;28;20175;-63
2022/04/06 11:20:00;;;;;;;4.57;1.88;;;;;;;23.03;29.27;94431.44;5015241;28;20691;-63
2022/04/06 11:22:26;;;;;;;2.95;2.33;;;;;;;23.14;28.43;94444.53;5015231;28;20175;-63
2022/04/06 11:24:54;;;;;;;3.67;2.45;;;;;;;23.35;29.63;94415.63;5015456;28;20233;-62
2022/04/06 11:27:35;;;;;;;3.20;1.80;;;;;;;23.62;28.93;94415.38;5013617;28;20249;-63
2022/04/06 11:30:23;;;;;;;4.50;2.40;;;;;;;23.83;29.29;94409.78;5015226;28;20172;-64
2022/04/06 11:33:00;;;;;;;4.90;2.13;;;;;;;24.17;27.59;94435.19;5013899;28;20270;-63
2022/04/06 11:35:34;;;;;;;2.67;2.10;;;;;;;23.97;28.17;94413.81;5013539;28;20206;-66
2022/04/06 11:38:02;;;;;;;3.95;1.92;;;;;;;23.71;27.96;94409.72;5034993;23;20586;-62
2022/04/06 11:40:28;;;;;;;2.80;2.10;;;;;;;24.10;28.34;94396.28;5034394;28;20286;-63
2022/04/06 11:42:55;;;;;;;4.43;2.05;;;;;;;24.06;27.66;94412.53;5035042;28;20554;-62
2022/04/06 11:45:30;;;;;;;3.95;2.40;;;;;;;24.05;29.37;94374.59;5034713;28;20256;-62
2022/04/06 11:47:57;;;;;;;4.95;2.20;;;;;;;24.31;29.10;94358.66;5034603;28;20628;-62